createdAt,value
2019-05-25T00:00:53.509Z,4.65
2019-05-25T00:03:21.934Z,4.60
2019-05-25T00:05:50.358Z,4.80
2019-05-25T00:08:18.849Z,5.10
2019-05-25T00:10:47.381Z,5.05
2019-05-25T00:13:15.809Z,4.90
2019-05-25T00:15:44.497Z,4.47
2019-05-25T00:18:12.923Z,4.42
2019-05-25T00:20:41.370Z,4.87
2019-05-25T00:23:09.823Z,4.90
2019-05-25T00:25:38.271Z,5.85
2019-05-25T00:28:06.812Z,5.42
2019-05-25T00:30:35.297Z,5.80
2019-05-25T00:33:03.737Z,4.83
2019-05-25T00:35:32.219Z,5.05
2019-05-25T00:38:00.668Z,5.60
2019-05-25T00:40:29.093Z,5.17
2019-05-25T00:42:57.523Z,4.92
2019-05-25T00:45:25.927Z,5.25
2019-05-25T00:47:54.354Z,4.92
2019-05-25T00:50:22.768Z,5.47
2019-05-25T00:52:51.191Z,5.05
2019-05-25T00:55:19.633Z,5.55
2019-05-25T00:57:48.107Z,5.67
2019-05-25T01:00:17.281Z,5.37
2019-05-25T01:02:45.741Z,5.80
2019-05-25T01:05:14.290Z,5.33
2019-05-25T01:07:42.704Z,5.35
2019-05-25T01:10:11.459Z,5.62
2019-05-25T01:12:39.877Z,5.22
2019-05-25T01:15:09.439Z,4.97
2019-05-25T01:17:37.923Z,5.30
2019-05-25T01:20:08.802Z,5.75
2019-05-25T01:22:37.215Z,4.80
2019-05-25T01:25:06.684Z,5.30
2019-05-25T01:27:35.104Z,5.10
2019-05-25T01:30:06.334Z,5.33
2019-05-25T01:32:34.750Z,4.92
2019-05-25T01:35:03.960Z,4.22
2019-05-25T01:37:32.373Z,5.15
2019-05-25T01:40:00.795Z,4.55
2019-05-25T01:42:29.210Z,4.55
2019-05-25T01:44:57.637Z,4.85
2019-05-25T01:47:26.138Z,4.45
2019-05-25T01:49:54.566Z,4.42
2019-05-25T01:52:22.974Z,5.00
2019-05-25T01:54:59.747Z,5.12
2019-05-25T01:57:21.546Z,4.60
2019-05-25T01:59:49.968Z,5.25
2019-05-25T02:02:18.406Z,4.50
2019-05-25T02:04:46.911Z,4.20
2019-05-25T02:07:15.314Z,5.65
2019-05-25T02:09:43.770Z,4.87
2019-05-25T02:12:12.191Z,4.90
2019-05-25T02:14:40.633Z,4.35
2019-05-25T02:17:09.043Z,4.53
2019-05-25T02:19:37.470Z,4.58
2019-05-25T02:22:05.891Z,3.92
2019-05-25T02:24:34.317Z,4.58
2019-05-25T02:27:02.797Z,4.37
2019-05-25T02:29:31.226Z,4.83
2019-05-25T02:31:59.645Z,5.30
2019-05-25T02:34:28.078Z,4.95
2019-05-25T02:36:56.496Z,4.80
2019-05-25T02:39:24.919Z,4.70
2019-05-25T02:41:53.348Z,4.45
2019-05-25T02:44:22.051Z,4.50
2019-05-25T02:46:50.472Z,5.20
2019-05-25T02:49:18.911Z,4.78
2019-05-25T02:51:47.333Z,4.58
2019-05-25T02:54:15.759Z,4.53
2019-05-25T02:56:44.179Z,4.70
2019-05-25T02:59:12.598Z,4.55
2019-05-25T03:01:41.091Z,4.35
2019-05-25T03:04:09.521Z,4.67
2019-05-25T03:06:39.187Z,4.67
2019-05-25T03:09:07.955Z,4.15
2019-05-25T03:11:37.338Z,4.87
2019-05-25T03:14:05.916Z,4.50
2019-05-25T03:16:34.351Z,5.55
2019-05-25T03:19:02.775Z,4.90
2019-05-25T03:21:31.220Z,4.72
2019-05-25T03:23:59.668Z,4.62
2019-05-25T03:26:28.114Z,4.62
2019-05-25T03:28:56.545Z,4.58
2019-05-25T03:31:24.964Z,4.20
2019-05-25T03:33:53.385Z,4.60
2019-05-25T03:36:21.819Z,4.65
2019-05-25T03:38:50.239Z,5.05
2019-05-25T03:41:18.666Z,4.70
2019-05-25T03:43:47.082Z,4.70
2019-05-25T03:46:15.516Z,5.10
2019-05-25T03:48:43.935Z,4.95
2019-05-25T03:51:12.377Z,5.45
2019-05-25T03:53:40.851Z,4.80
2019-05-25T03:56:09.274Z,4.87
2019-05-25T03:58:37.690Z,4.75
2019-05-25T04:01:06.181Z,5.22
2019-05-25T04:03:34.596Z,4.80
2019-05-25T04:06:03.055Z,4.95
2019-05-25T04:08:31.513Z,4.80
2019-05-25T04:10:59.953Z,5.33
2019-05-25T04:13:28.364Z,5.50
2019-05-25T04:15:58.438Z,5.30
2019-05-25T04:18:26.856Z,5.00
2019-05-25T04:20:55.295Z,5.05
2019-05-25T04:23:23.702Z,4.72
2019-05-25T04:25:52.143Z,4.85
2019-05-25T04:28:20.556Z,4.90
2019-05-25T04:30:48.988Z,5.37
2019-05-25T04:33:17.402Z,6.05
2019-05-25T04:35:45.849Z,5.05
2019-05-25T04:38:14.270Z,4.95
2019-05-25T04:40:42.671Z,4.90
2019-05-25T04:43:11.102Z,6.30
2019-05-25T04:45:39.530Z,6.25
2019-05-25T04:48:07.946Z,6.35
2019-05-25T04:50:36.360Z,5.87
2019-05-25T04:53:04.791Z,8.30
2019-05-25T04:55:33.743Z,8.15
2019-05-25T04:58:02.174Z,9.00
2019-05-25T05:00:30.593Z,8.53
2019-05-25T05:02:59.023Z,7.03
2019-05-25T05:05:27.434Z,7.08
2019-05-25T05:07:55.934Z,7.50
2019-05-25T05:10:24.356Z,8.88
2019-05-25T05:12:52.818Z,8.43
2019-05-25T05:15:21.241Z,7.35
2019-05-25T05:17:49.737Z,7.60
2019-05-25T05:20:18.391Z,6.78
2019-05-25T05:22:46.831Z,7.17
2019-05-25T05:25:15.390Z,7.45
2019-05-25T05:27:44.104Z,7.78
2019-05-25T05:30:12.669Z,7.78
2019-05-25T05:32:41.170Z,7.30
2019-05-25T05:35:10.134Z,7.37
2019-05-25T05:37:41.575Z,7.70
2019-05-25T05:40:10.419Z,7.50
2019-05-25T05:42:39.728Z,7.67
2019-05-25T05:45:08.740Z,7.55
2019-05-25T05:47:37.160Z,7.80
2019-05-25T05:50:07.515Z,7.58
2019-05-25T05:52:39.495Z,7.95
2019-05-25T05:55:10.527Z,7.62
2019-05-25T06:00:09.342Z,7.15
2019-05-25T06:02:37.771Z,7.80
2019-05-25T06:05:06.378Z,8.28
2019-05-25T06:07:34.797Z,7.47
2019-05-25T06:10:04.972Z,8.83
2019-05-25T06:12:33.383Z,8.67
2019-05-25T06:15:01.940Z,7.75
2019-05-25T06:17:30.431Z,8.15
2019-05-25T06:19:58.869Z,8.48
2019-05-25T06:22:27.290Z,8.90
2019-05-25T06:24:55.714Z,9.43
2019-05-25T06:27:27.315Z,8.70
2019-05-25T06:29:54.296Z,8.73
2019-05-25T06:32:22.830Z,8.78
2019-05-25T06:34:51.348Z,9.13
2019-05-25T06:37:19.764Z,8.95
2019-05-25T06:39:48.190Z,8.68
2019-05-25T06:42:16.604Z,9.18
2019-05-25T06:44:45.046Z,8.68
2019-05-25T06:47:13.459Z,10.23
2019-05-25T06:49:41.923Z,9.08
2019-05-25T06:52:10.342Z,8.55
2019-05-25T06:54:39.262Z,9.40
2019-05-25T06:57:07.676Z,9.63
2019-05-25T06:59:36.099Z,10.00
2019-05-25T07:02:04.967Z,10.08
2019-05-25T07:04:33.407Z,10.72
2019-05-25T07:07:01.868Z,9.80
2019-05-25T07:09:30.343Z,9.85
2019-05-25T07:11:58.765Z,9.80
2019-05-25T07:14:27.192Z,9.30
2019-05-25T07:16:55.615Z,8.80
2019-05-25T07:19:24.030Z,9.18
2019-05-25T07:21:52.489Z,8.85
2019-05-25T07:24:20.981Z,8.90
2019-05-25T07:26:49.538Z,9.75
2019-05-25T07:29:17.972Z,8.05
2019-05-25T07:31:46.386Z,8.10
2019-05-25T07:34:14.823Z,8.75
2019-05-25T07:36:43.314Z,7.67
2019-05-25T07:39:11.815Z,7.70
2019-05-25T07:41:40.226Z,7.05
2019-05-25T07:44:08.648Z,7.60
2019-05-25T07:46:37.158Z,6.90
2019-05-25T07:49:05.667Z,6.45
2019-05-25T07:51:34.099Z,6.05
2019-05-25T07:54:02.531Z,5.12
2019-05-25T07:56:30.954Z,5.70
2019-05-25T07:58:59.372Z,5.97
2019-05-25T08:01:27.827Z,5.95
2019-05-25T08:03:56.245Z,5.53
2019-05-25T08:06:24.674Z,5.70
2019-05-25T08:08:53.085Z,5.45
2019-05-25T08:11:21.520Z,6.30
2019-05-25T08:13:49.951Z,5.65
2019-05-25T08:16:18.395Z,5.28
2019-05-25T08:18:46.822Z,5.67
2019-05-25T08:21:15.284Z,4.95
2019-05-25T08:23:43.710Z,5.05
2019-05-25T08:26:12.157Z,5.35
2019-05-25T08:28:40.566Z,4.37
2019-05-25T08:31:09.001Z,3.95
2019-05-25T08:33:37.406Z,4.75
2019-05-25T08:36:05.927Z,3.17
2019-05-25T08:38:34.355Z,4.22
2019-05-25T08:41:02.811Z,3.67
2019-05-25T08:43:31.239Z,3.47
2019-05-25T08:45:59.678Z,3.62
2019-05-25T08:48:28.091Z,4.03
2019-05-25T08:50:59.444Z,4.65
2019-05-25T08:53:40.476Z,4.08
2019-05-25T08:55:56.951Z,4.20
2019-05-25T08:58:25.377Z,3.95
2019-05-25T09:00:53.798Z,4.62
2019-05-25T09:03:22.315Z,4.22
2019-05-25T09:05:50.715Z,3.95
2019-05-25T09:08:19.168Z,3.85
2019-05-25T09:10:47.594Z,3.83
2019-05-25T09:13:16.020Z,4.33
2019-05-25T09:15:44.442Z,4.20
2019-05-25T09:18:12.867Z,5.80
2019-05-25T09:20:41.301Z,5.42
2019-05-25T09:23:09.738Z,4.90
2019-05-25T09:25:38.151Z,4.87
2019-05-25T09:28:06.660Z,4.92
2019-05-25T09:30:35.145Z,5.45
2019-05-25T09:33:03.644Z,6.22
2019-05-25T09:35:32.062Z,6.20
2019-05-25T09:38:00.486Z,5.60
2019-05-25T09:40:28.895Z,5.20
2019-05-25T09:42:57.324Z,4.42
2019-05-25T09:45:25.739Z,4.62
2019-05-25T09:47:54.166Z,4.35
2019-05-25T09:50:22.739Z,4.80
2019-05-25T09:52:51.172Z,5.70
2019-05-25T09:55:19.586Z,5.62
2019-05-25T09:57:48.026Z,5.00
2019-05-25T10:00:17.485Z,5.47
2019-05-25T10:02:46.291Z,5.15
2019-05-25T10:05:15.531Z,5.25
2019-05-25T10:07:44.736Z,6.30
2019-05-25T10:10:13.895Z,7.42
2019-05-25T10:12:42.314Z,7.35
2019-05-25T10:15:10.872Z,7.42
2019-05-25T10:17:39.461Z,6.40
2019-05-25T10:20:09.528Z,6.45
2019-05-25T10:22:38.071Z,6.47
2019-05-25T10:25:08.138Z,5.97
2019-05-25T10:27:36.558Z,7.00
2019-05-25T10:30:06.221Z,6.22
2019-05-25T10:32:34.718Z,5.72
2019-05-25T10:35:04.695Z,5.60
2019-05-25T10:37:33.123Z,5.22
2019-05-25T10:40:01.544Z,5.53
2019-05-25T10:42:29.961Z,5.40
2019-05-25T10:44:58.385Z,5.10
2019-05-25T10:47:26.799Z,5.10
2019-05-25T10:49:55.244Z,5.33
2019-05-25T10:52:23.725Z,5.03
2019-05-25T10:54:52.155Z,5.42
2019-05-25T10:57:20.569Z,5.80
2019-05-25T10:59:52.770Z,5.15
2019-05-25T11:02:19.156Z,5.20
2019-05-25T11:04:47.654Z,4.55
2019-05-25T11:07:16.072Z,4.15
2019-05-25T11:09:44.552Z,3.35
2019-05-25T11:12:13.013Z,2.98
2019-05-25T11:14:41.466Z,2.95
2019-05-25T11:17:09.894Z,2.70
2019-05-25T11:19:38.388Z,2.40
2019-05-25T11:22:06.879Z,2.17
2019-05-25T11:24:35.314Z,1.70
2019-05-25T11:27:03.879Z,1.82
2019-05-25T11:29:32.369Z,1.90
2019-05-25T11:32:04.452Z,2.33
2019-05-25T11:34:31.062Z,2.60
2019-05-25T11:36:59.479Z,3.10
2019-05-25T11:39:27.923Z,2.87
2019-05-25T11:41:56.338Z,2.87
2019-05-25T11:44:24.763Z,2.72
2019-05-25T11:46:53.240Z,2.90
2019-05-25T11:49:22.996Z,2.70
2019-05-25T11:51:51.692Z,3.30
2019-05-25T11:54:20.121Z,2.87
2019-05-25T11:56:48.543Z,2.98
2019-05-25T11:59:17.038Z,2.83
2019-05-25T12:01:45.487Z,2.72
2019-05-25T12:04:13.916Z,2.58
2019-05-25T12:06:42.323Z,1.80
2019-05-25T12:09:10.830Z,1.90
2019-05-25T12:11:39.248Z,2.60
2019-05-25T12:14:07.667Z,3.02
2019-05-25T12:16:36.078Z,1.70
2019-05-25T12:19:04.782Z,1.85
2019-05-25T12:21:33.208Z,1.90
2019-05-25T12:24:01.630Z,1.80
2019-05-25T12:26:30.046Z,2.40
2019-05-25T12:28:58.479Z,2.10
2019-05-25T12:31:26.898Z,2.20
2019-05-25T12:33:55.348Z,2.00
2019-05-25T12:36:23.844Z,1.77
2019-05-25T12:38:52.336Z,1.60
2019-05-25T12:41:20.750Z,1.57
2019-05-25T12:43:49.181Z,1.67
2019-05-25T12:46:17.592Z,2.00
2019-05-25T12:48:46.075Z,1.80
2019-05-25T12:51:17.612Z,1.60
2019-05-25T12:53:44.651Z,1.27
2019-05-25T12:56:13.082Z,1.37
2019-05-25T12:58:41.544Z,1.15
2019-05-25T13:01:10.008Z,2.65
2019-05-25T13:03:38.436Z,1.90
2019-05-25T13:06:06.931Z,1.65
2019-05-25T13:08:35.363Z,1.90
2019-05-25T13:11:03.863Z,1.77
2019-05-25T13:13:32.279Z,1.70
2019-05-25T13:16:00.720Z,1.65
2019-05-25T13:18:29.132Z,1.37
2019-05-25T13:20:57.573Z,1.65
2019-05-25T13:23:26.071Z,1.67
2019-05-25T13:25:54.506Z,1.60
2019-05-25T13:28:22.914Z,2.72
2019-05-25T13:30:51.352Z,1.55
2019-05-25T13:33:19.763Z,2.20
2019-05-25T13:35:48.198Z,2.35
2019-05-25T13:38:16.611Z,1.98
2019-05-25T13:40:45.036Z,1.90
2019-05-25T13:43:13.455Z,1.90
2019-05-25T13:45:41.879Z,1.75
2019-05-25T13:48:10.295Z,1.55
2019-05-25T13:50:38.742Z,1.80
2019-05-25T13:53:07.159Z,2.37
2019-05-25T13:55:35.663Z,2.10
2019-05-25T13:58:04.136Z,2.35
2019-05-25T14:00:32.570Z,2.65
2019-05-25T14:03:01.002Z,2.30
2019-05-25T14:05:29.405Z,1.90
2019-05-25T14:07:57.828Z,2.22
2019-05-25T14:10:26.253Z,2.05
2019-05-25T14:12:54.674Z,2.10
2019-05-25T14:15:23.158Z,2.22
2019-05-25T14:17:51.640Z,3.30
2019-05-25T14:20:20.224Z,2.35
2019-05-25T14:22:48.691Z,2.25
2019-05-25T14:25:17.243Z,3.62
2019-05-25T14:27:45.679Z,3.02
2019-05-25T14:30:14.842Z,2.98
2019-05-25T14:32:43.266Z,3.30
2019-05-25T14:35:11.930Z,2.75
2019-05-25T14:37:40.358Z,3.15
2019-05-25T14:40:11.534Z,3.30
2019-05-25T14:42:39.491Z,3.98
2019-05-25T14:45:08.641Z,3.67
2019-05-25T14:47:37.076Z,3.35
2019-05-25T14:50:07.022Z,4.00
2019-05-25T14:52:35.455Z,4.15
2019-05-25T14:55:06.413Z,3.62
2019-05-25T15:00:02.548Z,3.30
2019-05-25T15:02:30.980Z,3.17
2019-05-25T15:04:59.392Z,3.30
2019-05-25T15:07:27.821Z,4.12
2019-05-25T15:09:56.275Z,3.22
2019-05-25T15:12:24.746Z,3.02
2019-05-25T15:14:53.177Z,2.90
2019-05-25T15:17:21.611Z,2.87
2019-05-25T15:19:50.017Z,2.60
2019-05-25T15:22:18.445Z,2.70
2019-05-25T15:24:46.868Z,3.55
2019-05-25T15:27:15.296Z,3.17
2019-05-25T15:29:43.718Z,3.12
2019-05-25T15:32:20.133Z,2.70
2019-05-25T15:34:42.288Z,2.97
2019-05-25T15:37:10.710Z,2.62
2019-05-25T15:39:39.132Z,2.42
2019-05-25T15:42:07.554Z,2.35
2019-05-25T15:44:35.970Z,2.30
2019-05-25T15:47:05.156Z,2.20
2019-05-25T15:49:33.959Z,2.30
2019-05-25T15:52:02.516Z,2.60
2019-05-25T15:54:30.930Z,2.92
2019-05-25T15:56:59.369Z,2.22
2019-05-25T15:59:27.771Z,2.95
2019-05-25T16:01:56.207Z,2.58
2019-05-25T16:04:24.620Z,2.85
2019-05-25T16:06:53.040Z,2.62
2019-05-25T16:09:21.455Z,2.58
2019-05-25T16:11:49.870Z,3.05
2019-05-25T16:14:18.291Z,2.77
2019-05-25T16:16:46.709Z,3.35
2019-05-25T16:19:15.152Z,2.95
2019-05-25T16:21:43.579Z,2.72
2019-05-25T16:24:12.006Z,2.67
2019-05-25T16:26:45.800Z,2.20
2019-05-25T16:29:10.570Z,3.00
2019-05-25T16:31:38.993Z,2.50
2019-05-25T16:34:07.431Z,2.80
2019-05-25T16:36:35.906Z,2.70
2019-05-25T16:39:06.682Z,2.85
2019-05-25T16:41:35.579Z,2.87
2019-05-25T16:44:04.292Z,3.10
2019-05-25T16:46:32.775Z,2.77
2019-05-25T16:49:01.198Z,2.75
2019-05-25T16:51:29.617Z,2.70
2019-05-25T16:53:58.058Z,3.62
2019-05-25T16:56:26.483Z,2.30
2019-05-25T16:58:54.913Z,2.20
2019-05-25T17:01:23.326Z,2.62
2019-05-25T17:03:51.764Z,2.50
2019-05-25T17:06:20.171Z,2.22
2019-05-25T17:08:48.629Z,2.90
2019-05-25T17:11:17.041Z,3.25
2019-05-25T17:13:45.480Z,2.40
2019-05-25T17:16:13.923Z,3.00
2019-05-25T17:18:42.357Z,3.08
2019-05-25T17:21:10.806Z,2.30
2019-05-25T17:23:39.235Z,3.08
2019-05-25T17:26:07.688Z,3.00
2019-05-25T17:28:36.167Z,3.30
2019-05-25T17:31:04.774Z,3.20
2019-05-25T17:33:45.502Z,2.98
2019-05-25T17:36:03.331Z,3.17
2019-05-25T17:38:31.769Z,3.58
2019-05-25T17:41:00.271Z,3.45
2019-05-25T17:43:28.790Z,3.33
2019-05-25T17:45:57.207Z,3.00
2019-05-25T17:48:25.632Z,3.20
2019-05-25T17:50:54.056Z,2.98
2019-05-25T17:53:22.470Z,2.77
2019-05-25T17:55:50.899Z,2.30
2019-05-25T17:58:19.337Z,2.58
2019-05-25T18:00:49.862Z,2.40
2019-05-25T18:03:18.507Z,2.70
2019-05-25T18:05:47.342Z,2.60
2019-05-25T18:08:15.763Z,2.17
2019-05-25T18:10:54.243Z,2.22
2019-05-25T18:13:15.543Z,2.20
2019-05-25T18:15:44.035Z,2.25
2019-05-25T18:18:12.463Z,2.75
2019-05-25T18:20:40.977Z,2.20
2019-05-25T18:23:09.447Z,2.67
2019-05-25T18:25:37.884Z,2.37
2019-05-25T18:28:06.735Z,2.30
2019-05-25T18:30:35.714Z,2.15
2019-05-25T18:33:04.302Z,3.45
2019-05-25T18:35:33.003Z,2.62
2019-05-25T18:38:01.420Z,2.27
2019-05-25T18:40:29.897Z,2.65
2019-05-25T18:42:58.348Z,2.60
2019-05-25T18:45:26.844Z,3.33
2019-05-25T18:47:55.260Z,2.62
2019-05-25T18:50:23.829Z,2.80
2019-05-25T18:52:52.315Z,2.58
2019-05-25T18:55:20.814Z,4.78
2019-05-25T18:57:49.229Z,3.25
2019-05-25T19:00:19.768Z,2.42
2019-05-25T19:02:48.196Z,3.37
2019-05-25T19:05:16.928Z,2.98
2019-05-25T19:07:45.381Z,3.12
2019-05-25T19:10:14.141Z,5.05
2019-05-25T19:12:42.547Z,3.67
2019-05-25T19:15:11.349Z,2.80
2019-05-25T19:17:39.830Z,3.20
2019-05-25T19:20:29.120Z,3.20
2019-05-25T19:22:57.539Z,3.02
2019-05-25T19:25:25.978Z,3.10
2019-05-25T19:27:54.371Z,3.33
2019-05-25T19:30:23.253Z,2.95
2019-05-25T19:32:51.665Z,4.20
2019-05-25T19:35:20.162Z,3.50
2019-05-25T19:37:48.646Z,3.33
2019-05-25T19:40:17.212Z,3.22
2019-05-25T19:42:49.526Z,3.30
2019-05-25T19:45:16.412Z,3.67
2019-05-25T19:47:44.827Z,3.62
2019-05-25T19:50:13.983Z,3.80
2019-05-25T19:52:42.399Z,3.40
2019-05-25T19:55:12.443Z,3.67
2019-05-25T19:57:40.857Z,4.22
2019-05-25T20:00:10.815Z,6.17
2019-05-25T20:02:39.246Z,7.00
2019-05-25T20:05:16.330Z,6.80
2019-05-25T20:07:38.945Z,4.25
2019-05-25T20:10:09.364Z,3.70
2019-05-25T20:12:37.793Z,3.47
2019-05-25T20:15:08.868Z,3.98
2019-05-25T20:20:06.902Z,3.62
2019-05-25T20:22:35.337Z,3.80
2019-05-25T20:25:08.010Z,3.85
2019-05-25T20:27:36.498Z,4.65
2019-05-25T20:30:06.814Z,4.30
2019-05-25T20:32:35.245Z,3.60
2019-05-25T20:35:05.099Z,4.97
2019-05-25T20:37:33.594Z,3.65
2019-05-25T20:40:02.120Z,3.58
2019-05-25T20:42:30.612Z,3.75
2019-05-25T20:44:59.033Z,3.72
2019-05-25T20:47:27.457Z,3.55
2019-05-25T20:49:55.867Z,3.67
2019-05-25T20:52:24.294Z,3.40
2019-05-25T20:54:52.710Z,3.05
2019-05-25T20:57:21.149Z,3.27
2019-05-25T20:59:49.599Z,3.42
2019-05-25T21:02:18.099Z,4.00
2019-05-25T21:04:46.606Z,4.20
2019-05-25T21:07:15.107Z,3.60
2019-05-25T21:09:43.534Z,3.90
2019-05-25T21:12:11.979Z,4.55
2019-05-25T21:14:40.392Z,3.77
2019-05-25T21:17:08.849Z,4.47
2019-05-25T21:19:37.260Z,4.00
2019-05-25T21:22:06.335Z,4.70
2019-05-25T21:24:34.759Z,4.83
2019-05-25T21:27:03.251Z,4.40
2019-05-25T21:29:31.702Z,4.17
2019-05-25T21:32:00.153Z,5.30
2019-05-25T21:34:28.602Z,5.47
2019-05-25T21:36:57.331Z,5.20
2019-05-25T21:39:25.755Z,5.08
2019-05-25T21:41:54.220Z,4.95
2019-05-25T21:44:22.705Z,4.70
2019-05-25T21:46:51.155Z,5.15
2019-05-25T21:49:19.591Z,4.92
2019-05-25T21:51:48.029Z,5.37
2019-05-25T21:54:16.525Z,5.67
2019-05-25T21:56:45.015Z,5.83
2019-05-25T21:59:13.498Z,5.95
2019-05-25T22:01:41.941Z,5.37
2019-05-25T22:04:10.462Z,5.62
2019-05-25T22:06:38.920Z,6.40
2019-05-25T22:09:08.166Z,6.47
2019-05-25T22:11:36.862Z,5.70
2019-05-25T22:14:05.740Z,5.65
2019-05-25T22:16:34.181Z,5.42
2019-05-25T22:19:02.625Z,5.28
2019-05-25T22:21:31.048Z,5.33
2019-05-25T22:23:59.557Z,5.45
2019-05-25T22:26:28.151Z,5.67
2019-05-25T22:28:56.587Z,6.33
2019-05-25T22:31:25.031Z,5.55
2019-05-25T22:33:53.475Z,5.35
2019-05-25T22:36:21.911Z,5.60
2019-05-25T22:38:50.367Z,5.35
2019-05-25T22:41:20.001Z,5.50
2019-05-25T22:43:48.719Z,5.95
2019-05-25T22:46:17.140Z,5.65
2019-05-25T22:48:45.575Z,5.97
2019-05-25T22:51:14.010Z,6.62
2019-05-25T22:53:42.444Z,5.42
2019-05-25T22:56:10.861Z,5.80
2019-05-25T22:58:39.294Z,5.15
2019-05-25T23:01:07.770Z,6.00
2019-05-25T23:03:36.215Z,5.28
2019-05-25T23:06:04.635Z,5.50
2019-05-25T23:08:33.059Z,6.22
2019-05-25T23:11:01.470Z,5.45
2019-05-25T23:13:29.939Z,6.53
2019-05-25T23:15:58.390Z,5.90
2019-05-25T23:18:26.827Z,6.45
2019-05-25T23:20:55.223Z,5.75
2019-05-25T23:23:23.650Z,7.03
2019-05-25T23:25:52.067Z,8.50
2019-05-25T23:28:20.515Z,8.90
2019-05-25T23:30:48.995Z,7.12
2019-05-25T23:33:17.438Z,7.12
2019-05-25T23:35:45.851Z,6.87
2019-05-25T23:38:14.283Z,6.15
2019-05-25T23:40:42.695Z,6.87
2019-05-25T23:43:11.126Z,6.67
2019-05-25T23:45:39.545Z,6.45
2019-05-25T23:48:07.970Z,7.05
2019-05-25T23:50:36.411Z,6.10
2019-05-25T23:53:04.891Z,6.33
2019-05-25T23:55:33.317Z,6.37
2019-05-25T23:58:01.745Z,6.62
